Time;durP1;ratioP1;P1;durP2;ratioP2;P2;SDS_P1;SDS_P2;PMS_P1;PMS_P2;Temp;Humidity;BMP_temperature;BMP_pressure;BME280_temperature;BME280_humidity;BME280_pressure;Samples;Min_cycle;Max_cycle;Signal;HPM_P1;HPM_P2
2023/08/14 00:00:13;;;;;;;6.78;4.43;;;19.50;99.90;;;;;;10030872;29;20289;-85
2023/08/14 00:05:15;;;;;;;4.43;2.65;;;19.50;99.90;;;;;;10038604;29;20685;-85
2023/08/14 00:10:18;;;;;;;10.23;4.18;;;19.50;99.90;;;;;;10034721;29;20271;-85
2023/08/14 00:15:21;;;;;;;6.07;3.35;;;19.50;99.90;;;;;;10053397;29;20295;-85
2023/08/14 00:20:23;;;;;;;5.20;3.42;;;19.60;99.90;;;;;;10052216;24;20658;-84
2023/08/14 00:25:26;;;;;;;8.18;4.00;;;19.50;99.90;;;;;;10046905;29;20702;-84
2023/08/14 00:30:28;;;;;;;6.30;3.85;;;19.50;99.90;;;;;;10028895;29;20286;-84
2023/08/14 00:35:31;;;;;;;7.47;4.45;;;19.50;99.90;;;;;;10050145;29;20654;-84
2023/08/14 00:40:34;;;;;;;3.40;2.63;;;19.50;99.90;;;;;;10030623;29;20238;-84
2023/08/14 00:45:38;;;;;;;4.78;3.15;;;19.50;99.90;;;;;;10037924;29;20238;-84
2023/08/14 00:50:48;;;;;;;2.13;1.95;;;19.50;99.90;;;;;;10034784;29;20246;-84
2023/08/14 00:55:50;;;;;;;3.40;3.10;;;19.50;99.90;;;;;;10044503;29;20269;-85
2023/08/14 01:00:54;;;;;;;4.63;3.22;;;19.70;99.90;;;;;;10036844;29;20238;-84
2023/08/14 01:05:57;;;;;;;5.13;2.58;;;19.70;99.90;;;;;;10040714;29;20652;-85
2023/08/14 01:11:08;;;;;;;7.80;3.60;;;19.80;99.90;;;;;;10041684;29;20246;-84
2023/08/14 01:16:22;;;;;;;5.78;3.47;;;19.80;99.90;;;;;;10024510;29;20682;-84
2023/08/14 01:21:52;;;;;;;8.23;2.95;;;19.70;99.90;;;;;;10028756;29;20630;-84
2023/08/14 01:26:56;;;;;;;2.80;1.85;;;19.80;99.90;;;;;;10040407;29;20297;-85
2023/08/14 01:31:58;;;;;;;6.10;2.50;;;19.90;99.90;;;;;;10051188;29;20245;-84
2023/08/14 01:37:20;;;;;;;4.50;2.78;;;20.00;99.90;;;;;;10032735;29;20266;-85
2023/08/14 01:42:35;;;;;;;2.42;1.70;;;19.90;99.90;;;;;;10044347;29;20298;-84
2023/08/14 01:47:40;;;;;;;4.30;2.47;;;19.80;99.90;;;;;;10026077;29;20691;-84
2023/08/14 01:52:43;;;;;;;6.13;3.38;;;19.80;99.90;;;;;;10031043;29;20305;-84
2023/08/14 01:57:45;;;;;;;2.13;1.65;;;19.60;99.40;;;;;;10046923;29;20238;-84
2023/08/14 02:02:48;;;;;;;4.65;1.90;;;19.60;99.90;;;;;;10050559;29;20697;-84
2023/08/14 02:07:53;;;;;;;3.08;1.77;;;19.60;99.90;;;;;;10046731;29;20236;-84
2023/08/14 02:12:56;;;;;;;8.25;2.28;;;19.60;99.90;;;;;;10045990;29;20256;-84
2023/08/14 02:17:58;;;;;;;2.85;2.20;;;19.70;99.90;;;;;;10048841;29;20672;-84
2023/08/14 02:23:01;;;;;;;2.38;1.95;;;19.60;99.90;;;;;;10044024;29;20710;-84
2023/08/14 02:28:04;;;;;;;4.35;3.35;;;19.60;99.90;;;;;;10034967;29;20698;-84
2023/08/14 02:33:08;;;;;;;5.00;2.83;;;19.50;99.90;;;;;;10046293;29;20677;-84
2023/08/14 02:38:11;;;;;;;7.07;2.65;;;19.40;99.90;;;;;;10039056;29;20663;-84
2023/08/14 02:43:14;;;;;;;3.03;2.42;;;19.20;99.90;;;;;;10037042;29;20271;-84
2023/08/14 02:48:16;;;;;;;2.92;2.03;;;19.10;99.90;;;;;;10025176;29;20253;-84
2023/08/14 02:53:19;;;;;;;3.00;2.30;;;19.10;99.90;;;;;;10045324;29;20273;-84
2023/08/14 02:58:21;;;;;;;7.10;3.25;;;19.20;99.90;;;;;;10031772;29;20651;-87
2023/08/14 03:03:24;;;;;;;6.32;2.97;;;19.30;99.90;;;;;;10028800;29;20263;-85
2023/08/14 03:08:27;;;;;;;5.63;3.25;;;19.30;99.90;;;;;;10027129;29;20275;-84
2023/08/14 03:13:30;;;;;;;6.32;2.60;;;19.30;99.90;;;;;;10043722;29;20273;-84
2023/08/14 03:18:32;;;;;;;5.70;3.13;;;19.10;99.90;;;;;;10043774;29;20293;-84
2023/08/14 03:23:35;;;;;;;2.90;2.47;;;19.00;99.90;;;;;;10027235;29;20230;-85
2023/08/14 03:28:38;;;;;;;4.80;2.58;;;19.00;99.90;;;;;;10053376;29;20253;-85
2023/08/14 03:33:41;;;;;;;4.20;2.78;;;19.10;99.90;;;;;;10062205;29;20305;-84
2023/08/14 03:38:45;;;;;;;5.55;2.47;;;19.00;99.90;;;;;;10063508;29;20298;-84
2023/08/14 03:43:48;;;;;;;6.13;2.75;;;18.80;99.90;;;;;;10051122;29;20245;-84
2023/08/14 03:48:50;;;;;;;3.72;2.83;;;18.80;99.90;;;;;;10054536;29;20289;-84
2023/08/14 03:53:53;;;;;;;3.17;2.22;;;18.70;99.90;;;;;;10035102;29;20314;-84
2023/08/14 03:58:56;;;;;;;1.90;1.65;;;18.60;99.90;;;;;;10033522;29;20302;-84
2023/08/14 04:03:59;;;;;;;3.70;2.72;;;18.60;99.90;;;;;;10040673;29;20230;-84
2023/08/14 04:09:02;;;;;;;4.72;3.03;;;18.70;99.90;;;;;;10047857;29;20739;-85
2023/08/14 04:14:05;;;;;;;2.00;1.80;;;18.70;99.90;;;;;;10043694;29;20317;-84
2023/08/14 04:19:08;;;;;;;4.35;3.15;;;18.80;99.90;;;;;;10051672;29;20333;-84
2023/08/14 04:24:11;;;;;;;2.20;1.70;;;18.80;99.90;;;;;;10058272;29;20294;-84
2023/08/14 04:29:15;;;;;;;2.72;2.20;;;18.80;99.90;;;;;;10052887;29;20663;-84
2023/08/14 04:34:18;;;;;;;5.78;2.33;;;18.80;99.90;;;;;;10046664;29;20258;-84
2023/08/14 04:39:24;;;;;;;2.00;1.80;;;18.80;99.90;;;;;;10053810;29;20297;-84
2023/08/14 04:44:27;;;;;;;16.05;3.40;;;18.80;99.90;;;;;;10038902;29;20241;-84
2023/08/14 04:49:30;;;;;;;2.60;2.40;;;18.90;99.90;;;;;;10016096;29;20282;-84
2023/08/14 04:54:34;;;;;;;3.40;2.47;;;18.90;99.90;;;;;;10037272;29;20261;-85
2023/08/14 04:59:37;;;;;;;2.22;1.98;;;19.10;99.90;;;;;;10029263;29;20294;-84
2023/08/14 05:04:40;;;;;;;6.93;2.90;;;19.20;99.90;;;;;;10041694;29;20237;-84
2023/08/14 05:09:48;;;;;;;1.70;1.60;;;19.40;99.90;;;;;;10050484;29;20241;-84
2023/08/14 05:14:52;;;;;;;8.57;3.97;;;19.50;99.90;;;;;;10020867;29;20801;-84
2023/08/14 05:19:57;;;;;;;1.55;1.45;;;19.80;99.90;;;;;;10013581;29;20265;-84
2023/08/14 05:25:00;;;;;;;5.72;3.25;;;20.00;99.90;;;;;;10037327;29;20286;-84
2023/08/14 05:30:03;;;;;;;4.45;2.40;;;20.20;99.90;;;;;;10022768;29;20238;-84
2023/08/14 05:35:06;;;;;;;3.20;2.50;;;20.40;99.90;;;;;;10029420;29;20261;-84
2023/08/14 05:40:10;;;;;;;1.52;1.42;;;20.50;99.90;;;;;;10025800;29;20242;-84
2023/08/14 05:45:12;;;;;;;2.55;2.22;;;20.70;99.90;;;;;;10050083;29;20285;-85
2023/08/14 05:50:15;;;;;;;2.58;1.85;;;20.70;99.90;;;;;;10039084;29;20253;-87
2023/08/14 05:55:17;;;;;;;1.80;1.70;;;20.80;99.90;;;;;;10042956;29;20325;-84
2023/08/14 06:00:20;;;;;;;1.85;1.75;;;20.90;99.30;;;;;;10055449;29;20618;-84
2023/08/14 06:05:23;;;;;;;3.05;2.38;;;21.10;99.30;;;;;;10040784;29;20282;-84
2023/08/14 06:10:25;;;;;;;3.00;2.13;;;21.20;99.30;;;;;;10033555;29;20286;-84
2023/08/14 06:15:28;;;;;;;3.72;1.67;;;21.30;98.70;;;;;;10047657;29;20289;-84
2023/08/14 06:20:32;;;;;;;3.90;2.28;;;21.30;98.60;;;;;;10023333;29;20253;-84
2023/08/14 06:25:34;;;;;;;2.35;1.90;;;21.40;98.30;;;;;;10014885;29;20237;-84
2023/08/14 06:30:37;;;;;;;2.55;2.35;;;21.50;98.10;;;;;;10026733;29;20233;-84
2023/08/14 06:35:39;;;;;;;4.45;1.80;;;21.60;97.40;;;;;;10033877;29;20647;-82
2023/08/14 06:40:42;;;;;;;2.03;1.85;;;21.70;97.50;;;;;;10015183;29;20246;-86
2023/08/14 06:45:46;;;;;;;3.70;2.70;;;21.80;97.30;;;;;;10018583;29;20346;-83
2023/08/14 06:50:49;;;;;;;1.98;1.67;;;21.90;97.40;;;;;;10039005;29;20286;-82
2023/08/14 06:55:51;;;;;;;5.50;3.42;;;21.90;97.20;;;;;;10050258;29;20317;-83
2023/08/14 07:00:55;;;;;;;1.75;1.65;;;22.10;97.30;;;;;;10026754;29;20238;-83
2023/08/14 07:05:58;;;;;;;2.55;2.35;;;22.20;97.10;;;;;;10026155;29;20270;-83
2023/08/14 07:11:00;;;;;;;1.38;1.27;;;22.30;96.50;;;;;;10026889;29;20781;-84
2023/08/14 07:16:03;;;;;;;6.05;3.05;;;22.50;95.70;;;;;;10038825;29;20313;-84
2023/08/14 07:21:06;;;;;;;5.43;3.65;;;22.60;96.00;;;;;;10052164;29;20229;-84
2023/08/14 07:26:11;;;;;;;1.80;1.60;;;22.70;96.20;;;;;;10044466;29;20229;-87
2023/08/14 07:31:14;;;;;;;3.40;2.38;;;22.90;95.20;;;;;;10036724;29;20477;-85
2023/08/14 07:36:16;;;;;;;6.07;3.22;;;23.00;94.40;;;;;;10026633;29;20266;-90
2023/08/14 07:41:19;;;;;;;2.38;1.63;;;23.20;94.90;;;;;;10041583;29;20618;-87
2023/08/14 07:46:22;;;;;;;3.38;2.38;;;23.30;93.60;;;;;;10057656;29;20263;-88
2023/08/14 07:51:24;;;;;;;1.63;1.52;;;23.50;94.10;;;;;;10047145;29;20226;-89
2023/08/14 07:56:27;;;;;;;9.48;3.47;;;23.60;93.20;;;;;;10031230;29;20660;-88
2023/08/14 08:01:30;;;;;;;5.35;3.90;;;23.80;94.10;;;;;;10034404;29;20246;-89
2023/08/14 08:06:32;;;;;;;5.45;4.95;;;23.90;93.60;;;;;;10041001;29;20241;-87
2023/08/14 08:11:45;;;;;;;8.23;4.75;;;24.00;93.40;;;;;;10056945;29;20685;-89
2023/08/14 08:16:49;;;;;;;7.53;3.10;;;24.20;94.40;;;;;;10044068;29;20277;-89
2023/08/14 08:21:52;;;;;;;3.78;3.22;;;24.30;92.80;;;;;;10034316;29;20232;-88
2023/08/14 08:26:54;;;;;;;5.90;5.30;;;;;;;;;;10019645;29;20242;-86
2023/08/14 08:31:57;;;;;;;9.13;4.15;;;24.80;98.80;;;;;;10027090;29;20234;-84
2023/08/14 08:36:59;;;;;;;6.22;4.35;;;24.70;92.50;;;;;;10038705;29;20249;-85
2023/08/14 08:42:05;;;;;;;5.75;4.05;;;24.60;93.20;;;;;;10026723;29;20246;-85
2023/08/14 08:47:09;;;;;;;6.05;5.32;;;24.70;92.30;;;;;;10032960;29;20305;-82
2023/08/14 08:52:13;;;;;;;10.20;6.18;;;24.70;93.50;;;;;;10027348;29;20238;-84
2023/08/14 08:57:17;;;;;;;4.78;4.32;;;24.90;94.40;;;;;;10024723;29;20344;-86
2023/08/14 09:02:20;;;;;;;6.70;5.28;;;25.10;94.50;;;;;;10029163;29;20342;-84
2023/08/14 09:07:23;;;;;;;7.28;5.55;;;25.30;93.50;;;;;;10031472;29;20755;-86
2023/08/14 09:12:25;;;;;;;8.05;6.05;;;25.20;93.40;;;;;;10040877;29;20229;-88
2023/08/14 09:17:28;;;;;;;7.65;6.38;;;25.40;94.30;;;;;;10029483;29;20718;-88
2023/08/14 09:22:30;;;;;;;8.60;6.25;;;25.50;93.50;;;;;;10046415;29;20229;-89
2023/08/14 09:27:34;;;;;;;6.57;5.95;;;25.80;93.40;;;;;;10024815;29;20246;-88
2023/08/14 09:32:37;;;;;;;8.43;6.80;;;25.80;93.70;;;;;;10027745;29;20238;-86
2023/08/14 09:37:40;;;;;;;26.17;7.53;;;25.70;92.60;;;;;;10031312;29;20313;-87
2023/08/14 09:42:48;;;;;;;10.43;6.13;;;25.90;92.80;;;;;;10036353;29;20245;-86
2023/08/14 09:47:51;;;;;;;6.53;5.80;;;25.90;91.40;;;;;;10031627;29;20298;-85
2023/08/14 09:52:57;;;;;;;6.45;5.65;;;26.00;92.00;;;;;;10029867;29;20270;-85
2023/08/14 09:58:00;;;;;;;5.72;5.05;;;26.10;92.20;;;;;;10040052;29;20253;-85
2023/08/14 10:03:05;;;;;;;7.55;5.55;;;26.10;91.00;;;;;;10034767;29;20266;-86
2023/08/14 10:08:10;;;;;;;9.90;5.93;;;26.10;91.10;;;;;;10035848;29;20249;-89
2023/08/14 10:13:14;;;;;;;7.65;5.55;;;26.10;91.40;;;;;;10047084;29;20275;-85
2023/08/14 10:18:17;;;;;;;7.45;6.70;;;26.10;90.70;;;;;;10062629;23;20340;-82
2023/08/14 10:23:21;;;;;;;9.27;6.65;;;26.30;93.20;;;;;;10043599;29;20269;-86
2023/08/14 10:28:25;;;;;;;10.65;6.65;;;26.60;90.30;;;;;;10049781;29;20289;-86
2023/08/14 10:33:28;;;;;;;9.80;6.07;;;26.70;88.80;;;;;;10050524;29;20300;-86
2023/08/14 10:38:41;;;;;;;9.07;6.03;;;26.50;86.50;;;;;;10051289;29;20285;-87
2023/08/14 10:43:49;;;;;;;8.40;6.03;;;26.60;85.00;;;;;;10049320;29;20233;-87
2023/08/14 10:48:51;;;;;;;7.28;5.97;;;26.60;81.20;;;;;;10050761;29;20704;-87
2023/08/14 10:54:08;;;;;;;7.03;6.32;;;26.60;83.10;;;;;;10050914;29;20676;-87
2023/08/14 10:59:26;;;;;;;10.32;5.70;;;26.50;83.60;;;;;;10049456;29;20309;-87
2023/08/14 11:04:31;;;;;;;6.15;5.38;;;26.40;81.90;;;;;;10051013;29;20285;-86
2023/08/14 11:09:34;;;;;;;7.45;6.68;;;26.40;81.30;;;;;;10050852;29;20237;-87
2023/08/14 11:14:41;;;;;;;12.77;6.25;;;26.70;82.20;;;;;;10050829;29;20269;-86
2023/08/14 11:19:44;;;;;;;6.28;5.68;;;26.80;80.00;;;;;;10050306;29;20285;-86
2023/08/14 11:24:47;;;;;;;5.10;4.68;;;26.80;78.90;;;;;;10050958;29;20237;-87
2023/08/14 11:29:50;;;;;;;9.10;5.30;;;27.00;79.80;;;;;;10050059;29;20274;-86
2023/08/14 11:34:56;;;;;;;5.85;3.70;;;27.20;71.80;;;;;;10056037;29;20245;-86
2023/08/14 11:40:06;;;;;;;5.45;4.63;;;27.30;70.80;;;;;;10055589;29;20289;-86
2023/08/14 11:45:09;;;;;;;4.75;4.35;;;27.30;69.90;;;;;;10055512;29;20241;-86
2023/08/14 11:50:12;;;;;;;5.75;5.25;;;27.40;65.50;;;;;;10055306;29;20241;-86
2023/08/14 11:55:15;;;;;;;6.63;5.93;;;27.30;67.40;;;;;;10055879;29;20305;-86
2023/08/14 12:00:17;;;;;;;10.38;4.93;;;27.10;70.20;;;;;;10055067;29;20901;-87
2023/08/14 12:05:31;;;;;;;7.10;6.45;;;26.90;68.10;;;;;;10055821;29;20313;-86
2023/08/14 12:10:34;;;;;;;3.90;3.60;;;26.70;71.60;;;;;;10054521;29;20770;-87
2023/08/14 12:15:38;;;;;;;5.15;4.65;;;26.90;65.70;;;;;;10067641;29;20309;-87
2023/08/14 12:20:40;;;;;;;6.88;5.43;;;27.00;66.80;;;;;;10062060;29;20274;-86
2023/08/14 12:25:43;;;;;;;5.65;5.15;;;27.00;65.70;;;;;;10054714;29;20257;-87
2023/08/14 12:30:48;;;;;;;5.15;4.63;;;27.10;65.60;;;;;;10029384;29;20278;-87
2023/08/14 12:35:52;;;;;;;6.30;5.75;;;26.80;66.40;;;;;;10063111;29;20721;-86
2023/08/14 12:40:55;;;;;;;5.28;4.68;;;26.50;71.30;;;;;;10055318;29;20241;-87
2023/08/14 12:45:58;;;;;;;6.00;5.47;;;26.40;67.20;;;;;;10053461;29;20634;-87
2023/08/14 12:51:01;;;;;;;5.55;5.05;;;26.70;67.50;;;;;;10054838;29;20230;-87
2023/08/14 12:56:05;;;;;;;5.03;4.57;;;26.60;68.10;;;;;;10054491;29;20245;-86
2023/08/14 13:01:07;;;;;;;7.95;5.75;;;26.50;67.90;;;;;;10054502;29;20617;-86
2023/08/14 13:06:10;;;;;;;4.63;4.22;;;26.40;69.60;;;;;;10054361;29;20238;-86
2023/08/14 13:11:14;;;;;;;5.78;5.05;;;26.60;66.70;;;;;;10054112;29;20258;-86
2023/08/14 13:16:17;;;;;;;5.72;5.18;;;26.70;66.10;;;;;;10053745;29;20338;-87
2023/08/14 13:21:20;;;;;;;5.82;5.32;;;26.70;66.70;;;;;;10053884;29;20598;-87
2023/08/14 13:26:23;;;;;;;5.43;4.55;;;26.60;67.80;;;;;;10052332;29;20241;-86
2023/08/14 13:31:29;;;;;;;6.30;5.70;;;26.30;67.90;;;;;;10052251;29;20241;-86
2023/08/14 13:36:32;;;;;;;4.63;4.22;;;26.20;70.60;;;;;;10053171;29;20320;-86
2023/08/14 13:41:35;;;;;;;5.93;5.43;;;26.20;67.10;;;;;;10051046;29;20246;-86
2023/08/14 13:46:37;;;;;;;4.63;3.85;;;26.20;70.60;;;;;;10053007;29;20293;-86
2023/08/14 13:51:44;;;;;;;4.88;3.28;;;26.30;65.20;;;;;;10044051;29;20245;-86
2023/08/14 13:56:47;;;;;;;3.85;3.42;;;26.60;60.20;;;;;;10051611;29;20633;-86
2023/08/14 14:01:49;;;;;;;5.30;4.90;;;26.90;61.20;;;;;;10051523;29;20233;-86
2023/08/14 14:06:52;;;;;;;3.50;2.72;;;26.80;63.70;;;;;;10052021;29;20241;-86
2023/08/14 14:11:55;;;;;;;3.47;3.05;;;26.70;60.30;;;;;;10051021;29;20241;-86
2023/08/14 14:16:59;;;;;;;5.78;4.63;;;26.90;58.80;;;;;;10050130;29;20325;-86
2023/08/14 14:22:02;;;;;;;4.93;4.45;;;27.10;61.50;;;;;;10052106;29;20233;-85
2023/08/14 14:27:04;;;;;;;5.60;5.10;;;27.00;59.70;;;;;;10051763;29;20309;-86
2023/08/14 14:32:07;;;;;;;7.60;4.88;;;26.90;62.00;;;;;;10051861;29;20237;-86
2023/08/14 14:37:10;;;;;;;5.35;4.50;;;26.80;62.60;;;;;;10050184;29;20293;-88
2023/08/14 14:42:12;;;;;;;5.60;4.32;;;26.90;57.70;;;;;;10051762;29;20245;-88
2023/08/14 14:47:15;;;;;;;6.78;4.80;;;26.90;60.80;;;;;;10050073;29;20242;-88
2023/08/14 14:52:18;;;;;;;4.07;3.67;;;26.80;62.90;;;;;;10050672;29;20297;-88
2023/08/14 14:57:21;;;;;;;4.75;4.35;;;26.80;62.60;;;;;;10051071;29;20838;-88
2023/08/14 15:02:23;;;;;;;4.93;4.53;;;26.70;63.60;;;;;;10049825;29;20249;-88
2023/08/14 15:07:31;;;;;;;5.82;4.15;;;26.80;64.40;;;;;;10055302;29;20701;-87
2023/08/14 15:12:34;;;;;;;7.13;5.55;;;26.90;63.20;;;;;;10057191;29;20395;-88
2023/08/14 15:17:37;;;;;;;7.00;4.88;;;26.80;63.20;;;;;;10049434;29;20329;-87
2023/08/14 15:22:46;;;;;;;5.85;5.35;;;26.70;64.30;;;;;;10058010;29;20233;-88
2023/08/14 15:27:48;;;;;;;6.25;5.60;;;26.40;65.60;;;;;;10056442;29;20245;-88
2023/08/14 15:32:51;;;;;;;4.93;4.45;;;26.30;66.70;;;;;;10056302;29;20241;-87
2023/08/14 15:37:54;;;;;;;6.07;4.47;;;26.00;68.20;;;;;;10057262;29;20257;-89
2023/08/14 15:42:57;;;;;;;5.43;4.57;;;26.10;70.40;;;;;;10057663;29;20262;-87
2023/08/14 15:48:00;;;;;;;8.80;5.03;;;26.30;72.70;;;;;;10068702;29;20241;-87
2023/08/14 15:53:03;;;;;;;5.18;4.63;;;26.50;72.60;;;;;;10057049;29;20241;-86
2023/08/14 15:58:06;;;;;;;6.88;5.13;;;26.70;75.20;;;;;;10056606;29;20268;-87
2023/08/14 16:03:08;;;;;;;8.07;3.88;;;26.80;70.50;;;;;;10057118;29;20265;-87
2023/08/14 16:08:11;;;;;;;10.20;4.13;;;27.00;68.90;;;;;;10056592;29;20245;-88
2023/08/14 16:13:14;;;;;;;10.13;4.82;;;27.20;68.30;;;;;;10039311;29;20704;-86
2023/08/14 16:18:17;;;;;;;5.40;4.90;;;27.30;67.80;;;;;;10053799;29;20313;-87
2023/08/14 16:23:19;;;;;;;7.43;4.15;;;27.20;64.80;;;;;;10055837;29;20289;-88
2023/08/14 16:28:22;;;;;;;7.53;3.33;;;27.20;68.70;;;;;;10054132;29;20291;-85
2023/08/14 16:33:24;;;;;;;4.43;3.65;;;27.10;72.00;;;;;;10051763;29;20246;-85
2023/08/14 16:38:27;;;;;;;5.13;4.63;;;27.20;72.10;;;;;;10050615;29;20265;-87
2023/08/14 16:43:29;;;;;;;6.82;4.22;;;27.00;71.30;;;;;;10054436;29;20696;-86
2023/08/14 16:48:32;;;;;;;6.15;4.25;;;26.80;72.40;;;;;;10054422;29;20233;-86
2023/08/14 16:53:34;;;;;;;4.63;4.18;;;26.70;78.70;;;;;;10049929;29;20237;-86
2023/08/14 16:58:37;;;;;;;5.60;3.05;;;26.70;80.40;;;;;;10053225;29;20253;-87
2023/08/14 17:03:39;;;;;;;3.83;3.42;;;26.70;77.60;;;;;;10051599;29;20241;-86
2023/08/14 17:08:42;;;;;;;4.93;2.67;;;26.70;78.80;;;;;;10052156;29;20245;-86
2023/08/14 17:13:44;;;;;;;5.88;3.75;;;26.60;81.30;;;;;;10053780;29;20245;-86
2023/08/14 17:18:47;;;;;;;10.30;4.97;;;26.60;82.40;;;;;;10052074;29;20717;-86
2023/08/14 17:23:50;;;;;;;8.23;4.82;;;26.50;83.90;;;;;;10050569;29;20313;-86
2023/08/14 17:28:52;;;;;;;4.18;3.40;;;26.40;82.90;;;;;;10050874;29;20249;-87
2023/08/14 17:33:55;;;;;;;9.88;4.53;;;26.30;84.20;;;;;;10034571;29;20240;-86
2023/08/14 17:39:00;;;;;;;9.07;5.35;;;26.20;84.30;;;;;;10049655;29;20269;-86
2023/08/14 17:44:03;;;;;;;7.05;5.13;;;26.00;85.00;;;;;;10051057;29;20360;-86
2023/08/14 17:49:06;;;;;;;7.32;5.53;;;25.90;86.70;;;;;;10050610;29;20693;-86
2023/08/14 17:54:08;;;;;;;6.68;4.57;;;25.70;88.50;;;;;;10050706;29;20309;-86
2023/08/14 17:59:11;;;;;;;5.93;5.32;;;25.60;90.00;;;;;;10051149;29;20321;-86
2023/08/14 18:04:13;;;;;;;6.25;4.90;;;25.40;92.00;;;;;;10049100;29;20233;-86
2023/08/14 18:09:16;;;;;;;7.43;4.43;;;25.40;91.70;;;;;;10063573;29;20249;-86
2023/08/14 18:14:19;;;;;;;5.28;4.47;;;25.20;92.50;;;;;;10049924;29;20349;-86
2023/08/14 18:19:21;;;;;;;7.55;4.63;;;25.20;95.50;;;;;;9713106;29;9999630;-87
2023/08/14 18:24:31;;;;;;;6.60;4.40;;;25.10;95.90;;;;;;10047223;29;20270;-87
2023/08/14 18:29:33;;;;;;;6.70;4.57;;;25.00;96.00;;;;;;10036568;29;20237;-87
2023/08/14 18:34:36;;;;;;;4.32;3.55;;;24.90;96.50;;;;;;10046541;29;20345;-87
2023/08/14 18:39:39;;;;;;;11.20;7.65;;;24.80;96.50;;;;;;10038757;29;20257;-88
2023/08/14 18:44:41;;;;;;;5.65;4.70;;;24.70;98.40;;;;;;10055666;29;20233;-88
2023/08/14 18:49:45;;;;;;;6.50;5.80;;;24.70;97.90;;;;;;10051483;29;20248;-84
2023/08/14 18:54:48;;;;;;;9.95;6.25;;;24.60;97.90;;;;;;10052611;29;20256;-86
2023/08/14 18:59:50;;;;;;;12.27;6.78;;;24.60;99.40;;;;;;10042680;29;20296;-84
2023/08/14 19:04:53;;;;;;;7.60;6.82;;;24.50;99.90;;;;;;10043774;29;20300;-85
2023/08/14 19:09:56;;;;;;;8.45;6.55;;;24.50;99.90;;;;;;10043181;29;20314;-85
2023/08/14 19:14:58;;;;;;;7.57;5.00;;;24.40;99.90;;;;;;10042030;29;20325;-84
2023/08/14 19:20:01;;;;;;;6.45;5.18;;;24.30;99.90;;;;;;10045905;29;20410;-84
2023/08/14 19:25:04;;;;;;;11.55;7.93;;;24.30;99.90;;;;;;10051667;29;20237;-84
2023/08/14 19:30:07;;;;;;;6.22;5.72;;;24.20;99.90;;;;;;10052732;29;20305;-84
2023/08/14 19:35:09;;;;;;;4.95;4.45;;;24.20;99.90;;;;;;10049360;29;20245;-84
2023/08/14 19:40:12;;;;;;;7.93;6.57;;;24.10;99.90;;;;;;10047320;29;20313;-84
2023/08/14 19:45:14;;;;;;;16.70;10.70;;;24.10;99.90;;;;;;10049334;29;20262;-84
2023/08/14 19:50:17;;;;;;;10.95;9.23;;;24.00;99.90;;;;;;10051735;29;20229;-85
2023/08/14 19:55:20;;;;;;;10.20;9.02;;;23.80;99.90;;;;;;10050232;29;20241;-85
2023/08/14 20:00:22;;;;;;;16.52;10.10;;;23.60;99.90;;;;;;10047422;29;20293;-85
2023/08/14 20:05:25;;;;;;;14.38;11.00;;;23.50;99.90;;;;;;10050896;29;20262;-85
2023/08/14 20:10:28;;;;;;;11.20;9.82;;;23.30;99.90;;;;;;10054793;29;20241;-84
2023/08/14 20:15:30;;;;;;;14.77;9.43;;;23.10;99.90;;;;;;10053136;29;20260;-84
2023/08/14 20:20:33;;;;;;;11.32;9.98;;;23.00;99.90;;;;;;10050233;29;20257;-85
2023/08/14 20:25:36;;;;;;;18.13;11.20;;;22.80;99.90;;;;;;10055040;29;20784;-84
2023/08/14 20:30:41;;;;;;;15.25;11.35;;;22.70;99.90;;;;;;10051339;29;20237;-84
2023/08/14 20:35:46;;;;;;;12.05;10.65;;;22.70;99.90;;;;;;10051510;29;20241;-85
2023/08/14 20:40:54;;;;;;;21.50;9.95;;;22.50;99.90;;;;;;10051703;29;20289;-84
2023/08/14 20:45:57;;;;;;;11.95;9.52;;;22.40;99.90;;;;;;10052519;29;20281;-85
2023/08/14 20:51:00;;;;;;;12.70;9.13;;;22.30;99.90;;;;;;10050576;29;20294;-84
2023/08/14 20:56:03;;;;;;;11.48;9.15;;;22.30;99.90;;;;;;10051675;29;20665;-84
2023/08/14 21:01:06;;;;;;;9.10;8.20;;;22.20;99.90;;;;;;10053964;29;20260;-84
2023/08/14 21:06:08;;;;;;;11.07;8.63;;;22.10;99.90;;;;;;10050675;29;20241;-85
2023/08/14 21:11:13;;;;;;;9.52;8.27;;;22.10;99.90;;;;;;10049606;29;20309;-85
2023/08/14 21:16:16;;;;;;;11.63;9.73;;;22.00;99.90;;;;;;10050510;29;20284;-84
2023/08/14 21:21:19;;;;;;;13.07;9.95;;;22.00;99.90;;;;;;10053421;29;20316;-84
2023/08/14 21:26:22;;;;;;;11.57;9.18;;;22.00;99.90;;;;;;10050752;29;20682;-85
2023/08/14 21:31:24;;;;;;;23.13;10.48;;;21.90;99.90;;;;;;10051397;29;20290;-84
2023/08/14 21:36:27;;;;;;;11.40;8.48;;;21.90;99.90;;;;;;10053449;29;20245;-85
2023/08/14 21:41:29;;;;;;;12.38;9.85;;;21.90;99.90;;;;;;10051800;29;20260;-84
2023/08/14 21:46:32;;;;;;;17.08;10.18;;;21.90;99.90;;;;;;10049734;29;20705;-85
2023/08/14 21:51:36;;;;;;;16.73;10.73;;;21.90;99.90;;;;;;10049572;29;20245;-85
2023/08/14 21:56:39;;;;;;;10.48;9.25;;;21.80;99.90;;;;;;10050719;29;20309;-85
2023/08/14 22:01:43;;;;;;;10.57;8.05;;;21.70;99.90;;;;;;10046280;29;20252;-85
2023/08/14 22:06:46;;;;;;;9.60;8.27;;;21.60;99.90;;;;;;10051375;29;20244;-85
2023/08/14 22:11:48;;;;;;;10.70;8.73;;;21.60;99.90;;;;;;10049738;29;20305;-85
2023/08/14 22:16:51;;;;;;;16.42;11.05;;;21.60;99.90;;;;;;10037615;29;20735;-85
2023/08/14 22:21:54;;;;;;;15.63;11.32;;;21.70;99.90;;;;;;10047833;29;20728;-85
2023/08/14 22:26:56;;;;;;;14.35;10.10;;;21.70;99.90;;;;;;10040915;29;20789;-84
2023/08/14 22:31:59;;;;;;;21.92;9.13;;;21.70;99.90;;;;;;10048806;29;20233;-85
2023/08/14 22:37:05;;;;;;;15.80;10.45;;;21.50;99.90;;;;;;10046571;29;20724;-85
2023/08/14 22:42:08;;;;;;;10.90;9.85;;;21.60;99.90;;;;;;10048751;29;20268;-85
2023/08/14 22:47:10;;;;;;;16.67;10.65;;;21.50;99.90;;;;;;10050610;29;20580;-85
2023/08/14 22:52:16;;;;;;;10.20;9.13;;;21.40;99.90;;;;;;10051796;29;20301;-85
2023/08/14 22:57:18;;;;;;;13.82;9.05;;;21.30;99.90;;;;;;10048980;29;20761;-86
2023/08/14 23:02:26;;;;;;;11.32;9.73;;;21.30;99.90;;;;;;10047711;29;20305;-85
2023/08/14 23:07:28;;;;;;;16.30;12.75;;;21.20;99.90;;;;;;10047667;29;20221;-84
2023/08/14 23:12:31;;;;;;;15.52;11.50;;;21.20;99.90;;;;;;10044398;29;20271;-84
2023/08/14 23:17:34;;;;;;;14.32;11.45;;;21.10;99.90;;;;;;10046812;29;20297;-84
2023/08/14 23:22:37;;;;;;;15.88;9.95;;;21.10;99.90;;;;;;10049538;29;20264;-84
2023/08/14 23:27:39;;;;;;;10.93;8.68;;;21.00;99.90;;;;;;10053542;29;20641;-84
2023/08/14 23:32:42;;;;;;;10.50;8.98;;;21.00;99.90;;;;;;10056919;29;20835;-84
2023/08/14 23:37:44;;;;;;;8.65;7.85;;;20.90;99.90;;;;;;10056243;29;20241;-84
2023/08/14 23:42:47;;;;;;;11.05;9.88;;;20.90;99.90;;;;;;10057327;29;20249;-84
2023/08/14 23:47:49;;;;;;;9.48;8.65;;;20.90;99.90;;;;;;10056260;29;20298;-84
2023/08/14 23:52:52;;;;;;;9.00;8.20;;;20.70;99.90;;;;;;10055706;29;20259;-84
2023/08/14 23:57:54;;;;;;;12.10;9.90;;;20.60;99.90;;;;;;10056025;29;20232;-84
